sensor_id;sensor_type;location;lat;lon;timestamp;temperature;humidity
1716;DHT22;855;48.824;9.220;2022-12-18T00:00:40;-6.10;88.90
1716;DHT22;855;48.824;9.220;2022-12-18T00:03:07;-6.00;89.00
1716;DHT22;855;48.824;9.220;2022-12-18T00:05:34;-6.00;89.10
1716;DHT22;855;48.824;9.220;2022-12-18T00:08:02;-6.00;89.00
1716;DHT22;855;48.824;9.220;2022-12-18T00:10:29;-6.00;88.70
1716;DHT22;855;48.824;9.220;2022-12-18T00:12:56;-6.10;88.50
1716;DHT22;855;48.824;9.220;2022-12-18T00:15:23;-6.00;88.50
1716;DHT22;855;48.824;9.220;2022-12-18T00:17:49;-6.00;88.20
1716;DHT22;855;48.824;9.220;2022-12-18T00:20:16;-6.00;87.80
1716;DHT22;855;48.824;9.220;2022-12-18T00:22:47;-6.00;87.50
1716;DHT22;855;48.824;9.220;2022-12-18T00:25:15;-6.10;87.50
1716;DHT22;855;48.824;9.220;2022-12-18T00:27:42;-6.20;87.90
1716;DHT22;855;48.824;9.220;2022-12-18T00:30:10;-6.20;88.90
1716;DHT22;855;48.824;9.220;2022-12-18T00:32:37;-6.40;89.70
1716;DHT22;855;48.824;9.220;2022-12-18T00:35:04;-6.50;90.60
1716;DHT22;855;48.824;9.220;2022-12-18T00:37:33;-6.50;91.80
1716;DHT22;855;48.824;9.220;2022-12-18T00:40:00;-6.50;92.30
1716;DHT22;855;48.824;9.220;2022-12-18T00:42:28;-6.50;92.70
1716;DHT22;855;48.824;9.220;2022-12-18T00:45:12;-6.40;93.20
1716;DHT22;855;48.824;9.220;2022-12-18T00:47:39;-6.40;93.20
1716;DHT22;855;48.824;9.220;2022-12-18T00:50:08;-6.30;92.90
1716;DHT22;855;48.824;9.220;2022-12-18T00:52:35;-6.20;92.50
1716;DHT22;855;48.824;9.220;2022-12-18T00:55:10;-6.30;91.70
1716;DHT22;855;48.824;9.220;2022-12-18T00:57:39;-6.30;91.00
1716;DHT22;855;48.824;9.220;2022-12-18T01:00:09;-6.40;90.40
1716;DHT22;855;48.824;9.220;2022-12-18T01:02:36;-6.50;90.50
1716;DHT22;855;48.824;9.220;2022-12-18T01:05:05;-6.50;90.70
1716;DHT22;855;48.824;9.220;2022-12-18T01:07:32;-6.50;91.30
1716;DHT22;855;48.824;9.220;2022-12-18T01:09:58;-6.50;91.60
1716;DHT22;855;48.824;9.220;2022-12-18T01:12:25;-6.50;92.10
1716;DHT22;855;48.824;9.220;2022-12-18T01:14:53;-6.60;93.00
1716;DHT22;855;48.824;9.220;2022-12-18T01:17:21;-6.50;93.90
1716;DHT22;855;48.824;9.220;2022-12-18T01:19:47;-6.60;94.40
1716;DHT22;855;48.824;9.220;2022-12-18T01:22:14;-6.50;94.80
1716;DHT22;855;48.824;9.220;2022-12-18T01:24:41;-6.50;94.80
1716;DHT22;855;48.824;9.220;2022-12-18T01:27:08;-6.50;94.90
1716;DHT22;855;48.824;9.220;2022-12-18T01:29:34;-6.50;94.90
1716;DHT22;855;48.824;9.220;2022-12-18T01:32:03;-6.50;95.00
1716;DHT22;855;48.824;9.220;2022-12-18T01:34:30;-6.60;95.10
1716;DHT22;855;48.824;9.220;2022-12-18T01:36:57;-6.50;95.30
1716;DHT22;855;48.824;9.220;2022-12-18T01:39:23;-6.50;95.30
1716;DHT22;855;48.824;9.220;2022-12-18T01:41:50;-6.60;95.10
1716;DHT22;855;48.824;9.220;2022-12-18T01:45:01;-6.70;95.50
1716;DHT22;855;48.824;9.220;2022-12-18T01:47:33;-6.70;95.50
1716;DHT22;855;48.824;9.220;2022-12-18T01:50:04;-6.70;95.60
1716;DHT22;855;48.824;9.220;2022-12-18T01:52:33;-6.70;95.50
1716;DHT22;855;48.824;9.220;2022-12-18T01:55:03;-6.80;95.50
1716;DHT22;855;48.824;9.220;2022-12-18T01:57:31;-6.90;95.60
1716;DHT22;855;48.824;9.220;2022-12-18T02:00:00;-6.90;95.90
1716;DHT22;855;48.824;9.220;2022-12-18T02:02:30;-6.90;96.00
1716;DHT22;855;48.824;9.220;2022-12-18T02:04:58;-6.90;96.00
1716;DHT22;855;48.824;9.220;2022-12-18T02:07:31;-6.90;96.20
1716;DHT22;855;48.824;9.220;2022-12-18T02:10:03;-6.90;96.30
1716;DHT22;855;48.824;9.220;2022-12-18T02:12:39;-6.90;96.40
1716;DHT22;855;48.824;9.220;2022-12-18T02:15:13;-6.80;96.50
1716;DHT22;855;48.824;9.220;2022-12-18T02:17:46;-6.80;96.40
1716;DHT22;855;48.824;9.220;2022-12-18T02:20:17;-6.80;96.30
1716;DHT22;855;48.824;9.220;2022-12-18T02:22:55;-6.70;96.10
1716;DHT22;855;48.824;9.220;2022-12-18T02:25:51;-6.70;96.00
1716;DHT22;855;48.824;9.220;2022-12-18T02:28:20;-6.60;96.00
1716;DHT22;855;48.824;9.220;2022-12-18T02:30:50;-6.60;95.90
1716;DHT22;855;48.824;9.220;2022-12-18T02:33:20;-6.50;95.80
1716;DHT22;855;48.824;9.220;2022-12-18T02:35:50;-6.50;95.60
1716;DHT22;855;48.824;9.220;2022-12-18T02:38:18;-6.50;95.40
1716;DHT22;855;48.824;9.220;2022-12-18T02:40:46;-6.50;95.40
1716;DHT22;855;48.824;9.220;2022-12-18T02:43:15;-6.40;95.40
1716;DHT22;855;48.824;9.220;2022-12-18T02:45:50;-6.20;95.40
1716;DHT22;855;48.824;9.220;2022-12-18T02:48:24;-6.10;95.20
1716;DHT22;855;48.824;9.220;2022-12-18T02:50:57;-6.10;94.70
1716;DHT22;855;48.824;9.220;2022-12-18T02:53:30;-6.10;94.40
1716;DHT22;855;48.824;9.220;2022-12-18T02:56:05;-6.10;94.20
1716;DHT22;855;48.824;9.220;2022-12-18T02:58:40;-6.00;94.00
1716;DHT22;855;48.824;9.220;2022-12-18T03:01:13;-6.00;93.90
1716;DHT22;855;48.824;9.220;2022-12-18T03:03:41;-6.00;93.70
1716;DHT22;855;48.824;9.220;2022-12-18T03:06:14;-6.00;93.60
1716;DHT22;855;48.824;9.220;2022-12-18T03:08:47;-6.00;93.40
1716;DHT22;855;48.824;9.220;2022-12-18T03:11:14;-6.00;93.20
1716;DHT22;855;48.824;9.220;2022-12-18T03:14:03;-5.90;93.10
1716;DHT22;855;48.824;9.220;2022-12-18T03:16:33;-5.90;92.90
1716;DHT22;855;48.824;9.220;2022-12-18T03:19:02;-5.90;92.80
1716;DHT22;855;48.824;9.220;2022-12-18T03:21:34;-5.90;92.80
1716;DHT22;855;48.824;9.220;2022-12-18T03:24:04;-5.90;92.60
1716;DHT22;855;48.824;9.220;2022-12-18T03:26:35;-5.90;92.40
1716;DHT22;855;48.824;9.220;2022-12-18T03:29:08;-5.80;92.30
1716;DHT22;855;48.824;9.220;2022-12-18T03:31:38;-5.80;92.20
1716;DHT22;855;48.824;9.220;2022-12-18T03:34:11;-5.70;91.90
1716;DHT22;855;48.824;9.220;2022-12-18T03:36:40;-5.70;91.60
1716;DHT22;855;48.824;9.220;2022-12-18T03:39:09;-5.80;91.40
1716;DHT22;855;48.824;9.220;2022-12-18T03:41:42;-5.80;91.60
1716;DHT22;855;48.824;9.220;2022-12-18T03:44:13;-5.80;91.60
1716;DHT22;855;48.824;9.220;2022-12-18T03:46:46;-5.70;91.50
1716;DHT22;855;48.824;9.220;2022-12-18T03:49:23;-5.70;91.20
1716;DHT22;855;48.824;9.220;2022-12-18T03:51:54;-5.70;91.20
1716;DHT22;855;48.824;9.220;2022-12-18T03:54:22;-5.60;91.00
1716;DHT22;855;48.824;9.220;2022-12-18T03:56:54;-5.60;90.80
1716;DHT22;855;48.824;9.220;2022-12-18T03:59:25;-5.60;90.40
1716;DHT22;855;48.824;9.220;2022-12-18T04:01:54;-5.60;90.20
1716;DHT22;855;48.824;9.220;2022-12-18T04:04:22;-5.50;90.10
1716;DHT22;855;48.824;9.220;2022-12-18T04:06:51;-5.50;89.80
1716;DHT22;855;48.824;9.220;2022-12-18T04:09:19;-5.50;89.40
1716;DHT22;855;48.824;9.220;2022-12-18T04:11:46;-5.50;89.30
1716;DHT22;855;48.824;9.220;2022-12-18T04:14:13;-5.60;89.10
1716;DHT22;855;48.824;9.220;2022-12-18T04:16:42;-5.60;89.10
1716;DHT22;855;48.824;9.220;2022-12-18T04:19:08;-5.70;89.30
1716;DHT22;855;48.824;9.220;2022-12-18T04:21:35;-5.80;89.40
1716;DHT22;855;48.824;9.220;2022-12-18T04:24:02;-5.90;89.50
1716;DHT22;855;48.824;9.220;2022-12-18T04:26:29;-6.00;89.80
1716;DHT22;855;48.824;9.220;2022-12-18T04:28:56;-6.20;90.10
1716;DHT22;855;48.824;9.220;2022-12-18T04:31:23;-6.10;90.50
1716;DHT22;855;48.824;9.220;2022-12-18T04:33:51;-6.10;90.50
1716;DHT22;855;48.824;9.220;2022-12-18T04:36:18;-6.30;90.30
1716;DHT22;855;48.824;9.220;2022-12-18T04:38:45;-6.30;90.80
1716;DHT22;855;48.824;9.220;2022-12-18T04:41:14;-6.30;90.90
1716;DHT22;855;48.824;9.220;2022-12-18T04:43:41;-6.40;90.90
1716;DHT22;855;48.824;9.220;2022-12-18T04:46:08;-6.50;90.90
1716;DHT22;855;48.824;9.220;2022-12-18T04:48:35;-6.60;91.00
1716;DHT22;855;48.824;9.220;2022-12-18T04:51:04;-6.70;91.20
1716;DHT22;855;48.824;9.220;2022-12-18T04:53:31;-6.70;91.50
1716;DHT22;855;48.824;9.220;2022-12-18T04:56:05;-6.70;91.80
1716;DHT22;855;48.824;9.220;2022-12-18T04:58:33;-6.80;91.80
1716;DHT22;855;48.824;9.220;2022-12-18T05:01:00;-6.80;91.80
1716;DHT22;855;48.824;9.220;2022-12-18T05:03:27;-6.80;91.90
1716;DHT22;855;48.824;9.220;2022-12-18T05:05:54;-6.80;91.80
1716;DHT22;855;48.824;9.220;2022-12-18T05:08:23;-6.70;91.90
1716;DHT22;855;48.824;9.220;2022-12-18T05:10:49;-6.60;91.80
1716;DHT22;855;48.824;9.220;2022-12-18T05:13:24;-6.60;91.30
1716;DHT22;855;48.824;9.220;2022-12-18T05:15:52;-6.60;91.00
1716;DHT22;855;48.824;9.220;2022-12-18T05:18:19;-6.60;90.90
1716;DHT22;855;48.824;9.220;2022-12-18T05:20:46;-6.60;90.70
1716;DHT22;855;48.824;9.220;2022-12-18T05:23:13;-6.60;90.50
1716;DHT22;855;48.824;9.220;2022-12-18T05:25:41;-6.70;90.30
1716;DHT22;855;48.824;9.220;2022-12-18T05:28:08;-6.80;90.30
1716;DHT22;855;48.824;9.220;2022-12-18T05:30:34;-6.90;90.70
1716;DHT22;855;48.824;9.220;2022-12-18T05:33:01;-7.00;90.80
1716;DHT22;855;48.824;9.220;2022-12-18T05:35:28;-7.00;91.00
1716;DHT22;855;48.824;9.220;2022-12-18T05:37:55;-7.00;91.10
1716;DHT22;855;48.824;9.220;2022-12-18T05:40:22;-7.00;91.10
1716;DHT22;855;48.824;9.220;2022-12-18T05:42:50;-6.90;91.10
1716;DHT22;855;48.824;9.220;2022-12-18T05:45:17;-6.80;90.90
1716;DHT22;855;48.824;9.220;2022-12-18T05:47:43;-6.80;90.40
1716;DHT22;855;48.824;9.220;2022-12-18T05:50:10;-6.90;90.20
1716;DHT22;855;48.824;9.220;2022-12-18T05:52:37;-7.00;90.10
1716;DHT22;855;48.824;9.220;2022-12-18T05:55:04;-7.00;90.10
1716;DHT22;855;48.824;9.220;2022-12-18T05:57:31;-7.10;90.10
1716;DHT22;855;48.824;9.220;2022-12-18T05:59:59;-7.20;90.10
1716;DHT22;855;48.824;9.220;2022-12-18T06:02:26;-7.30;89.90
1716;DHT22;855;48.824;9.220;2022-12-18T06:04:53;-7.40;90.10
1716;DHT22;855;48.824;9.220;2022-12-18T06:07:20;-7.30;90.10
1716;DHT22;855;48.824;9.220;2022-12-18T06:09:46;-7.30;90.10
1716;DHT22;855;48.824;9.220;2022-12-18T06:12:13;-7.30;90.10
1716;DHT22;855;48.824;9.220;2022-12-18T06:14:40;-7.30;89.90
1716;DHT22;855;48.824;9.220;2022-12-18T06:17:08;-7.20;89.80
1716;DHT22;855;48.824;9.220;2022-12-18T06:19:35;-7.20;89.40
1716;DHT22;855;48.824;9.220;2022-12-18T06:22:02;-7.30;89.10
1716;DHT22;855;48.824;9.220;2022-12-18T06:24:29;-7.30;89.10
1716;DHT22;855;48.824;9.220;2022-12-18T06:26:56;-7.30;89.30
1716;DHT22;855;48.824;9.220;2022-12-18T06:29:23;-7.30;89.10
1716;DHT22;855;48.824;9.220;2022-12-18T06:31:50;-7.40;88.70
1716;DHT22;855;48.824;9.220;2022-12-18T06:34:18;-7.40;88.70
1716;DHT22;855;48.824;9.220;2022-12-18T06:36:45;-7.40;89.10
1716;DHT22;855;48.824;9.220;2022-12-18T06:39:11;-7.50;89.10
1716;DHT22;855;48.824;9.220;2022-12-18T06:41:38;-7.50;89.30
1716;DHT22;855;48.824;9.220;2022-12-18T06:44:05;-7.50;89.30
1716;DHT22;855;48.824;9.220;2022-12-18T06:46:32;-7.50;89.30
1716;DHT22;855;48.824;9.220;2022-12-18T06:48:59;-7.50;89.40
1716;DHT22;855;48.824;9.220;2022-12-18T06:51:27;-7.40;89.70
1716;DHT22;855;48.824;9.220;2022-12-18T06:53:54;-7.40;89.50
1716;DHT22;855;48.824;9.220;2022-12-18T06:56:20;-7.60;88.90
1716;DHT22;855;48.824;9.220;2022-12-18T06:58:50;-7.80;89.30
1716;DHT22;855;48.824;9.220;2022-12-18T07:01:17;-7.90;90.20
1716;DHT22;855;48.824;9.220;2022-12-18T07:03:44;-7.90;90.60
1716;DHT22;855;48.824;9.220;2022-12-18T07:06:15;-7.80;90.90
1716;DHT22;855;48.824;9.220;2022-12-18T07:08:44;-7.80;90.90
1716;DHT22;855;48.824;9.220;2022-12-18T07:11:11;-7.80;90.90
1716;DHT22;855;48.824;9.220;2022-12-18T07:13:38;-7.80;90.80
1716;DHT22;855;48.824;9.220;2022-12-18T07:16:06;-7.70;90.70
1716;DHT22;855;48.824;9.220;2022-12-18T07:18:33;-7.60;90.70
1716;DHT22;855;48.824;9.220;2022-12-18T07:21:03;-7.60;90.40
1716;DHT22;855;48.824;9.220;2022-12-18T07:23:31;-7.60;90.10
1716;DHT22;855;48.824;9.220;2022-12-18T07:26:04;-7.70;89.90
1716;DHT22;855;48.824;9.220;2022-12-18T07:28:31;-7.60;89.90
1716;DHT22;855;48.824;9.220;2022-12-18T07:31:02;-7.50;89.90
1716;DHT22;855;48.824;9.220;2022-12-18T07:33:29;-7.50;89.50
1716;DHT22;855;48.824;9.220;2022-12-18T07:35:55;-7.60;89.30
1716;DHT22;855;48.824;9.220;2022-12-18T07:38:22;-7.60;89.30
1716;DHT22;855;48.824;9.220;2022-12-18T07:40:49;-7.50;89.30
1716;DHT22;855;48.824;9.220;2022-12-18T07:43:17;-7.50;89.10
1716;DHT22;855;48.824;9.220;2022-12-18T07:45:44;-7.40;89.10
1716;DHT22;855;48.824;9.220;2022-12-18T07:48:11;-7.30;89.00
1716;DHT22;855;48.824;9.220;2022-12-18T07:50:38;-7.40;88.50
1716;DHT22;855;48.824;9.220;2022-12-18T07:53:05;-7.30;88.30
1716;DHT22;855;48.824;9.220;2022-12-18T07:55:32;-7.30;88.30
1716;DHT22;855;48.824;9.220;2022-12-18T07:58:01;-7.10;88.20
1716;DHT22;855;48.824;9.220;2022-12-18T08:00:29;-7.10;87.90
1716;DHT22;855;48.824;9.220;2022-12-18T08:02:56;-7.10;87.90
1716;DHT22;855;48.824;9.220;2022-12-18T08:05:24;-6.90;87.90
1716;DHT22;855;48.824;9.220;2022-12-18T08:07:50;-7.10;87.70
1716;DHT22;855;48.824;9.220;2022-12-18T08:10:18;-7.10;87.90
1716;DHT22;855;48.824;9.220;2022-12-18T08:12:45;-7.20;88.20
1716;DHT22;855;48.824;9.220;2022-12-18T08:15:11;-7.30;88.60
1716;DHT22;855;48.824;9.220;2022-12-18T08:17:39;-7.30;89.10
1716;DHT22;855;48.824;9.220;2022-12-18T08:20:07;-7.30;89.40
1716;DHT22;855;48.824;9.220;2022-12-18T08:22:37;-7.30;89.90
1716;DHT22;855;48.824;9.220;2022-12-18T08:25:05;-7.20;90.10
1716;DHT22;855;48.824;9.220;2022-12-18T08:27:32;-7.10;89.80
1716;DHT22;855;48.824;9.220;2022-12-18T08:29:59;-7.10;89.80
1716;DHT22;855;48.824;9.220;2022-12-18T08:32:27;-7.00;89.90
1716;DHT22;855;48.824;9.220;2022-12-18T08:34:55;-7.10;89.70
1716;DHT22;855;48.824;9.220;2022-12-18T08:37:22;-7.00;89.80
1716;DHT22;855;48.824;9.220;2022-12-18T08:39:49;-6.90;89.90
1716;DHT22;855;48.824;9.220;2022-12-18T08:42:16;-6.90;89.70
1716;DHT22;855;48.824;9.220;2022-12-18T08:45:00;-6.80;89.50
1716;DHT22;855;48.824;9.220;2022-12-18T08:47:27;-6.70;89.10
1716;DHT22;855;48.824;9.220;2022-12-18T08:49:55;-6.50;89.10
1716;DHT22;855;48.824;9.220;2022-12-18T08:52:22;-6.50;88.90
1716;DHT22;855;48.824;9.220;2022-12-18T08:54:49;-6.40;89.00
1716;DHT22;855;48.824;9.220;2022-12-18T08:57:16;-6.30;88.90
1716;DHT22;855;48.824;9.220;2022-12-18T08:59:43;-6.30;88.30
1716;DHT22;855;48.824;9.220;2022-12-18T09:02:10;-6.30;88.10
1716;DHT22;855;48.824;9.220;2022-12-18T09:04:37;-6.30;87.70
1716;DHT22;855;48.824;9.220;2022-12-18T09:07:06;-6.30;87.80
1716;DHT22;855;48.824;9.220;2022-12-18T09:09:33;-6.20;88.30
1716;DHT22;855;48.824;9.220;2022-12-18T09:12:00;-6.10;88.30
1716;DHT22;855;48.824;9.220;2022-12-18T09:14:27;-6.10;88.10
1716;DHT22;855;48.824;9.220;2022-12-18T09:16:54;-6.00;88.20
1716;DHT22;855;48.824;9.220;2022-12-18T09:19:21;-6.00;87.90
1716;DHT22;855;48.824;9.220;2022-12-18T09:21:48;-5.80;87.90
1716;DHT22;855;48.824;9.220;2022-12-18T09:24:16;-5.70;87.90
1716;DHT22;855;48.824;9.220;2022-12-18T09:26:43;-5.60;87.70
1716;DHT22;855;48.824;9.220;2022-12-18T09:29:10;-5.60;87.30
1716;DHT22;855;48.824;9.220;2022-12-18T09:31:38;-5.50;87.30
1716;DHT22;855;48.824;9.220;2022-12-18T09:34:05;-5.50;86.70
1716;DHT22;855;48.824;9.220;2022-12-18T09:36:31;-5.50;86.50
1716;DHT22;855;48.824;9.220;2022-12-18T09:38:58;-5.30;86.70
1716;DHT22;855;48.824;9.220;2022-12-18T09:41:41;-5.20;86.40
1716;DHT22;855;48.824;9.220;2022-12-18T09:44:25;-5.10;86.50
1716;DHT22;855;48.824;9.220;2022-12-18T09:47:03;-4.90;86.10
1716;DHT22;855;48.824;9.220;2022-12-18T09:49:37;-4.90;85.80
1716;DHT22;855;48.824;9.220;2022-12-18T09:52:11;-5.00;85.80
1716;DHT22;855;48.824;9.220;2022-12-18T09:54:46;-5.10;86.00
1716;DHT22;855;48.824;9.220;2022-12-18T09:57:21;-5.10;86.20
1716;DHT22;855;48.824;9.220;2022-12-18T09:59:52;-5.10;87.00
1716;DHT22;855;48.824;9.220;2022-12-18T10:02:22;-5.10;87.30
1716;DHT22;855;48.824;9.220;2022-12-18T10:04:57;-5.10;87.30
1716;DHT22;855;48.824;9.220;2022-12-18T10:07:37;-5.10;87.40
1716;DHT22;855;48.824;9.220;2022-12-18T10:10:12;-5.00;87.70
1716;DHT22;855;48.824;9.220;2022-12-18T10:12:46;-5.10;88.10
1716;DHT22;855;48.824;9.220;2022-12-18T10:15:21;-5.00;88.50
1716;DHT22;855;48.824;9.220;2022-12-18T10:17:54;-4.90;88.70
1716;DHT22;855;48.824;9.220;2022-12-18T10:20:30;-4.70;88.50
1716;DHT22;855;48.824;9.220;2022-12-18T10:23:03;-4.60;88.20
1716;DHT22;855;48.824;9.220;2022-12-18T10:25:36;-4.50;88.10
1716;DHT22;855;48.824;9.220;2022-12-18T10:28:12;-4.40;88.30
1716;DHT22;855;48.824;9.220;2022-12-18T10:30:41;-4.30;88.50
1716;DHT22;855;48.824;9.220;2022-12-18T10:33:10;-4.20;88.50
1716;DHT22;855;48.824;9.220;2022-12-18T10:35:41;-4.20;88.30
1716;DHT22;855;48.824;9.220;2022-12-18T10:38:22;-4.00;88.50
1716;DHT22;855;48.824;9.220;2022-12-18T10:40:52;-3.80;88.50
1716;DHT22;855;48.824;9.220;2022-12-18T10:43:25;-3.60;88.50
1716;DHT22;855;48.824;9.220;2022-12-18T10:46:07;-3.30;88.30
1716;DHT22;855;48.824;9.220;2022-12-18T10:48:46;-3.10;87.10
1716;DHT22;855;48.824;9.220;2022-12-18T10:51:21;-3.10;85.80
1716;DHT22;855;48.824;9.220;2022-12-18T10:53:54;-3.00;85.30
1716;DHT22;855;48.824;9.220;2022-12-18T10:56:22;-2.90;84.90
1716;DHT22;855;48.824;9.220;2022-12-18T10:58:58;-2.80;84.10
1716;DHT22;855;48.824;9.220;2022-12-18T11:01:25;-2.70;83.70
1716;DHT22;855;48.824;9.220;2022-12-18T11:04:01;-2.70;83.40
1716;DHT22;855;48.824;9.220;2022-12-18T11:06:29;-2.50;83.70
1716;DHT22;855;48.824;9.220;2022-12-18T11:09:03;-2.40;83.60
1716;DHT22;855;48.824;9.220;2022-12-18T11:11:32;-2.20;83.80
1716;DHT22;855;48.824;9.220;2022-12-18T11:14:03;-2.00;82.80
1716;DHT22;855;48.824;9.220;2022-12-18T11:16:34;-2.00;82.10
1716;DHT22;855;48.824;9.220;2022-12-18T11:19:19;-1.70;82.40
1716;DHT22;855;48.824;9.220;2022-12-18T11:21:48;-1.70;81.10
1716;DHT22;855;48.824;9.220;2022-12-18T11:24:25;-1.90;81.10
1716;DHT22;855;48.824;9.220;2022-12-18T11:26:53;-1.90;81.30
1716;DHT22;855;48.824;9.220;2022-12-18T11:29:29;-1.70;81.90
1716;DHT22;855;48.824;9.220;2022-12-18T11:32:19;-1.50;81.60
1716;DHT22;855;48.824;9.220;2022-12-18T11:34:50;-1.30;81.10
1716;DHT22;855;48.824;9.220;2022-12-18T11:37:18;-1.20;79.90
1716;DHT22;855;48.824;9.220;2022-12-18T11:39:51;-1.00;79.60
1716;DHT22;855;48.824;9.220;2022-12-18T11:42:24;-0.90;78.60
1716;DHT22;855;48.824;9.220;2022-12-18T11:44:57;-0.90;78.20
1716;DHT22;855;48.824;9.220;2022-12-18T11:47:28;-0.80;78.00
1716;DHT22;855;48.824;9.220;2022-12-18T11:50:00;-0.80;77.50
1716;DHT22;855;48.824;9.220;2022-12-18T11:52:31;-0.80;77.60
1716;DHT22;855;48.824;9.220;2022-12-18T11:55:00;-0.70;77.50
1716;DHT22;855;48.824;9.220;2022-12-18T11:57:34;-0.90;76.80
1716;DHT22;855;48.824;9.220;2022-12-18T12:00:11;-0.90;78.00
1716;DHT22;855;48.824;9.220;2022-12-18T12:02:49;-0.70;78.20
1716;DHT22;855;48.824;9.220;2022-12-18T12:05:34;-0.50;77.80
1716;DHT22;855;48.824;9.220;2022-12-18T12:08:11;-0.40;77.50
1716;DHT22;855;48.824;9.220;2022-12-18T12:10:48;-0.30;76.80
1716;DHT22;855;48.824;9.220;2022-12-18T12:13:27;-0.20;76.20
1716;DHT22;855;48.824;9.220;2022-12-18T12:16:10;-0.10;76.00
1716;DHT22;855;48.824;9.220;2022-12-18T12:18:48;0.00;75.90
1716;DHT22;855;48.824;9.220;2022-12-18T12:21:22;0.00;75.50
1716;DHT22;855;48.824;9.220;2022-12-18T12:23:57;-0.10;75.40
1716;DHT22;855;48.824;9.220;2022-12-18T12:26:30;0.00;75.50
1716;DHT22;855;48.824;9.220;2022-12-18T12:29:16;0.20;75.40
1716;DHT22;855;48.824;9.220;2022-12-18T12:32:01;0.30;74.60
1716;DHT22;855;48.824;9.220;2022-12-18T12:34:34;0.40;74.60
1716;DHT22;855;48.824;9.220;2022-12-18T12:37:13;0.60;74.20
1716;DHT22;855;48.824;9.220;2022-12-18T12:39:44;0.80;73.80
1716;DHT22;855;48.824;9.220;2022-12-18T12:42:17;0.90;73.00
1716;DHT22;855;48.824;9.220;2022-12-18T12:45:05;1.10;72.30
1716;DHT22;855;48.824;9.220;2022-12-18T12:47:38;1.30;71.80
1716;DHT22;855;48.824;9.220;2022-12-18T12:50:14;1.40;71.30
1716;DHT22;855;48.824;9.220;2022-12-18T12:52:45;1.40;70.80
1716;DHT22;855;48.824;9.220;2022-12-18T12:55:17;1.60;70.60
1716;DHT22;855;48.824;9.220;2022-12-18T12:57:51;1.50;69.80
1716;DHT22;855;48.824;9.220;2022-12-18T13:00:21;1.60;69.80
1716;DHT22;855;48.824;9.220;2022-12-18T13:02:56;1.60;69.70
1716;DHT22;855;48.824;9.220;2022-12-18T13:05:29;1.80;69.60
1716;DHT22;855;48.824;9.220;2022-12-18T13:08:00;1.80;69.30
1716;DHT22;855;48.824;9.220;2022-12-18T13:10:33;1.90;68.90
1716;DHT22;855;48.824;9.220;2022-12-18T13:13:02;1.90;68.10
1716;DHT22;855;48.824;9.220;2022-12-18T13:15:32;1.50;68.80
1716;DHT22;855;48.824;9.220;2022-12-18T13:18:16;1.30;70.00
1716;DHT22;855;48.824;9.220;2022-12-18T13:20:45;1.50;70.50
1716;DHT22;855;48.824;9.220;2022-12-18T13:23:27;1.60;70.80
1716;DHT22;855;48.824;9.220;2022-12-18T13:25:55;1.70;70.20
1716;DHT22;855;48.824;9.220;2022-12-18T13:28:24;1.70;69.70
1716;DHT22;855;48.824;9.220;2022-12-18T13:31:10;1.60;69.70
1716;DHT22;855;48.824;9.220;2022-12-18T13:33:43;1.60;70.40
1716;DHT22;855;48.824;9.220;2022-12-18T13:36:26;1.70;70.60
1716;DHT22;855;48.824;9.220;2022-12-18T13:39:24;1.80;70.50
1716;DHT22;855;48.824;9.220;2022-12-18T13:41:52;1.60;69.80
1716;DHT22;855;48.824;9.220;2022-12-18T13:44:31;1.40;70.40
1716;DHT22;855;48.824;9.220;2022-12-18T13:46:59;1.40;70.80
1716;DHT22;855;48.824;9.220;2022-12-18T13:49:35;1.50;70.90
1716;DHT22;855;48.824;9.220;2022-12-18T13:52:15;1.40;71.20
1716;DHT22;855;48.824;9.220;2022-12-18T13:54:47;1.60;71.40
1716;DHT22;855;48.824;9.220;2022-12-18T13:57:26;1.70;71.30
1716;DHT22;855;48.824;9.220;2022-12-18T13:59:54;1.80;70.90
1716;DHT22;855;48.824;9.220;2022-12-18T14:02:22;1.70;70.20
1716;DHT22;855;48.824;9.220;2022-12-18T14:04:52;1.90;70.40
1716;DHT22;855;48.824;9.220;2022-12-18T14:07:21;2.00;70.40
1716;DHT22;855;48.824;9.220;2022-12-18T14:09:50;2.00;70.40
1716;DHT22;855;48.824;9.220;2022-12-18T14:12:20;2.00;70.00
1716;DHT22;855;48.824;9.220;2022-12-18T14:15:09;2.00;70.20
1716;DHT22;855;48.824;9.220;2022-12-18T14:17:39;2.00;70.20
1716;DHT22;855;48.824;9.220;2022-12-18T14:20:14;2.00;70.20
1716;DHT22;855;48.824;9.220;2022-12-18T14:22:43;1.90;70.20
1716;DHT22;855;48.824;9.220;2022-12-18T14:25:18;1.70;70.80
1716;DHT22;855;48.824;9.220;2022-12-18T14:27:47;1.50;76.20
1716;DHT22;855;48.824;9.220;2022-12-18T14:30:29;1.40;74.90
1716;DHT22;855;48.824;9.220;2022-12-18T14:33:03;1.30;75.00
1716;DHT22;855;48.824;9.220;2022-12-18T14:35:32;1.40;75.00
1716;DHT22;855;48.824;9.220;2022-12-18T14:38:11;1.40;74.90
1716;DHT22;855;48.824;9.220;2022-12-18T14:40:38;1.40;75.00
1716;DHT22;855;48.824;9.220;2022-12-18T14:43:04;1.40;75.40
1716;DHT22;855;48.824;9.220;2022-12-18T14:45:43;1.20;75.30
1716;DHT22;855;48.824;9.220;2022-12-18T14:48:16;1.10;75.80
1716;DHT22;855;48.824;9.220;2022-12-18T14:50:54;1.00;76.00
1716;DHT22;855;48.824;9.220;2022-12-18T14:53:28;1.00;76.30
1716;DHT22;855;48.824;9.220;2022-12-18T14:55:56;1.10;76.30
1716;DHT22;855;48.824;9.220;2022-12-18T14:58:23;1.00;76.20
1716;DHT22;855;48.824;9.220;2022-12-18T15:00:50;1.10;76.30
1716;DHT22;855;48.824;9.220;2022-12-18T15:03:18;1.00;76.40
1716;DHT22;855;48.824;9.220;2022-12-18T15:05:48;1.00;76.60
1716;DHT22;855;48.824;9.220;2022-12-18T15:08:29;0.90;76.80
1716;DHT22;855;48.824;9.220;2022-12-18T15:10:57;0.80;77.10
1716;DHT22;855;48.824;9.220;2022-12-18T15:13:24;0.60;77.90
1716;DHT22;855;48.824;9.220;2022-12-18T15:15:52;0.50;78.80
1716;DHT22;855;48.824;9.220;2022-12-18T15:18:21;0.40;79.50
1716;DHT22;855;48.824;9.220;2022-12-18T15:20:53;0.30;80.10
1716;DHT22;855;48.824;9.220;2022-12-18T15:23:22;0.30;80.50
1716;DHT22;855;48.824;9.220;2022-12-18T15:25:55;0.20;80.80
1716;DHT22;855;48.824;9.220;2022-12-18T15:28:24;0.00;81.50
1716;DHT22;855;48.824;9.220;2022-12-18T15:31:03;-0.20;82.10
1716;DHT22;855;48.824;9.220;2022-12-18T15:33:32;-0.30;82.90
1716;DHT22;855;48.824;9.220;2022-12-18T15:36:02;-0.40;83.40
1716;DHT22;855;48.824;9.220;2022-12-18T15:38:30;-0.50;84.10
1716;DHT22;855;48.824;9.220;2022-12-18T15:40:57;-0.60;84.60
1716;DHT22;855;48.824;9.220;2022-12-18T15:43:24;-0.50;85.00
1716;DHT22;855;48.824;9.220;2022-12-18T15:46:00;-0.50;85.20
1716;DHT22;855;48.824;9.220;2022-12-18T15:48:27;-0.50;85.00
1716;DHT22;855;48.824;9.220;2022-12-18T15:50:56;-0.60;84.90
1716;DHT22;855;48.824;9.220;2022-12-18T15:53:27;-0.70;85.60
1716;DHT22;855;48.824;9.220;2022-12-18T15:55:54;-0.70;86.00
1716;DHT22;855;48.824;9.220;2022-12-18T15:58:39;-0.90;86.50
1716;DHT22;855;48.824;9.220;2022-12-18T16:01:08;-0.90;87.10
1716;DHT22;855;48.824;9.220;2022-12-18T16:03:35;-1.00;87.10
1716;DHT22;855;48.824;9.220;2022-12-18T16:06:02;-1.00;87.30
1716;DHT22;855;48.824;9.220;2022-12-18T16:08:30;-1.00;87.70
1716;DHT22;855;48.824;9.220;2022-12-18T16:10:58;-1.00;87.40
1716;DHT22;855;48.824;9.220;2022-12-18T16:13:24;-1.10;87.40
1716;DHT22;855;48.824;9.220;2022-12-18T16:15:51;-1.10;87.90
1716;DHT22;855;48.824;9.220;2022-12-18T16:18:18;-1.10;88.10
1716;DHT22;855;48.824;9.220;2022-12-18T16:20:45;-1.00;87.90
1716;DHT22;855;48.824;9.220;2022-12-18T16:23:12;-1.10;87.70
1716;DHT22;855;48.824;9.220;2022-12-18T16:25:40;-1.10;87.90
1716;DHT22;855;48.824;9.220;2022-12-18T16:28:07;-1.10;88.10
1716;DHT22;855;48.824;9.220;2022-12-18T16:30:34;-1.10;88.20
1716;DHT22;855;48.824;9.220;2022-12-18T16:33:00;-1.00;88.20
1716;DHT22;855;48.824;9.220;2022-12-18T16:35:27;-1.10;87.90
1716;DHT22;855;48.824;9.220;2022-12-18T16:37:54;-1.10;87.80
1716;DHT22;855;48.824;9.220;2022-12-18T16:40:21;-1.20;88.30
1716;DHT22;855;48.824;9.220;2022-12-18T16:42:49;-1.10;88.50